Time;durP1;ratioP1;P1;durP2;ratioP2;P2;SDS_P1;SDS_P2;PMS_P1;PMS_P2;Temp;Humidity;BMP_temperature;BMP_pressure;BME280_temperature;BME280_humidity;BME280_pressure;Samples;Min_cycle;Max_cycle;Signal;HPM_P1;HPM_P2
2022/05/06 00:01:07;;;;;;;19.70;13.73;;;15.30;99.90;;;;;;5074553;28;20295;-59
2022/05/06 00:03:37;;;;;;;18.13;13.07;;;15.30;99.90;;;;;;5073821;28;20232;-59
2022/05/06 00:06:04;;;;;;;18.60;14.23;;;15.30;99.90;;;;;;5073846;28;20324;-59
2022/05/06 00:08:30;;;;;;;16.10;13.40;;;15.20;99.90;;;;;;5074163;28;20295;-59
2022/05/06 00:10:57;;;;;;;20.40;13.90;;;15.20;99.90;;;;;;5074455;28;20640;-59
2022/05/06 00:13:24;;;;;;;19.33;14.50;;;15.20;99.90;;;;;;5074110;28;20708;-59
2022/05/06 00:15:50;;;;;;;18.53;14.03;;;15.10;99.90;;;;;;5073641;28;20575;-59
2022/05/06 00:18:18;;;;;;;20.97;13.60;;;15.10;99.90;;;;;;5073681;28;20619;-59
2022/05/06 00:20:46;;;;;;;18.43;13.80;;;15.10;99.90;;;;;;5073652;28;20664;-59
2022/05/06 00:23:13;;;;;;;20.17;14.47;;;15.10;99.90;;;;;;5073933;28;20237;-59
2022/05/06 00:25:39;;;;;;;17.93;14.40;;;15.10;99.90;;;;;;5073454;28;20622;-59
2022/05/06 00:28:06;;;;;;;20.00;14.23;;;15.00;99.90;;;;;;5073848;28;20201;-59
2022/05/06 00:30:33;;;;;;;23.30;15.10;;;15.00;99.90;;;;;;5073679;28;20262;-59
2022/05/06 00:33:00;;;;;;;20.20;14.73;;;15.00;99.90;;;;;;5073475;28;20294;-59
2022/05/06 00:35:26;;;;;;;18.63;14.77;;;15.00;99.90;;;;;;5073358;28;20201;-59
2022/05/06 00:37:55;;;;;;;19.20;14.30;;;15.00;99.90;;;;;;5073356;28;20213;-59
2022/05/06 00:40:21;;;;;;;16.93;14.03;;;15.00;99.90;;;;;;5073577;28;20211;-59
2022/05/06 00:42:50;;;;;;;18.03;14.50;;;15.00;99.90;;;;;;5073202;28;20225;-59
2022/05/06 00:45:16;;;;;;;16.33;14.60;;;15.00;99.90;;;;;;5073030;28;20299;-59
2022/05/06 00:47:43;;;;;;;18.43;14.67;;;15.00;99.90;;;;;;5073291;28;20225;-59
2022/05/06 00:50:11;;;;;;;21.63;15.07;;;15.00;99.90;;;;;;5073228;28;20703;-59
2022/05/06 00:52:37;;;;;;;21.10;15.27;;;15.00;99.90;;;;;;5073504;28;20224;-59
2022/05/06 00:55:07;;;;;;;18.33;14.00;;;15.00;99.90;;;;;;5075676;28;20208;-59
2022/05/06 00:57:34;;;;;;;20.87;15.37;;;14.90;99.90;;;;;;5075298;28;20625;-59
2022/05/06 01:00:19;;;;;;;19.53;15.27;;;14.90;99.90;;;;;;5073663;28;20216;-59
2022/05/06 01:02:46;;;;;;;18.80;14.67;;;14.90;99.90;;;;;;5072838;28;20240;-59
2022/05/06 01:05:14;;;;;;;17.10;14.07;;;14.90;99.90;;;;;;5072730;28;20208;-59
2022/05/06 01:07:43;;;;;;;17.43;15.17;;;15.00;99.90;;;;;;5072687;28;20278;-59
2022/05/06 01:10:11;;;;;;;20.23;14.80;;;14.90;99.90;;;;;;5071974;28;20247;-60
2022/05/06 01:12:38;;;;;;;18.90;14.97;;;14.80;99.90;;;;;;5072865;28;20316;-59
2022/05/06 01:15:18;;;;;;;20.87;14.83;;;14.80;99.90;;;;;;5072636;28;20209;-59
2022/05/06 01:17:46;;;;;;;19.87;15.13;;;14.80;99.90;;;;;;5072745;28;20204;-59
2022/05/06 01:20:15;;;;;;;19.63;15.10;;;14.80;99.90;;;;;;5072631;28;20200;-59
2022/05/06 01:22:44;;;;;;;18.67;14.50;;;14.70;99.90;;;;;;5072467;28;20233;-59
2022/05/06 01:25:11;;;;;;;20.43;15.80;;;14.60;99.90;;;;;;5072194;28;20664;-59
2022/05/06 01:27:44;;;;;;;23.10;15.13;;;14.60;99.90;;;;;;5072501;28;20228;-59
2022/05/06 01:30:18;;;;;;;20.07;15.50;;;14.60;99.90;;;;;;5072578;28;20213;-59
2022/05/06 01:32:45;;;;;;;20.70;15.50;;;14.50;99.90;;;;;;5072386;28;20286;-59
2022/05/06 01:35:13;;;;;;;19.07;15.37;;;14.40;99.90;;;;;;5072097;28;20250;-59
2022/05/06 01:37:44;;;;;;;21.53;15.33;;;14.40;99.90;;;;;;5072479;28;20300;-59
2022/05/06 01:40:14;;;;;;;18.07;14.83;;;14.40;99.90;;;;;;5072519;28;20201;-59
2022/05/06 01:42:42;;;;;;;19.00;15.60;;;14.40;99.90;;;;;;5072457;28;20285;-59
2022/05/06 01:45:11;;;;;;;20.40;16.53;;;14.40;99.90;;;;;;5072188;28;20299;-59
2022/05/06 01:47:41;;;;;;;19.83;15.93;;;14.40;99.90;;;;;;5072489;28;20312;-59
2022/05/06 01:50:09;;;;;;;21.13;14.97;;;14.50;99.90;;;;;;5072700;28;20639;-59
2022/05/06 01:52:36;;;;;;;20.93;15.20;;;14.50;99.90;;;;;;5072955;28;20224;-59
2022/05/06 01:55:06;;;;;;;19.97;15.33;;;14.50;99.90;;;;;;5072662;28;20295;-59
2022/05/06 01:57:33;;;;;;;23.27;15.73;;;14.60;99.90;;;;;;5072405;28;20259;-59
2022/05/06 02:00:00;;;;;;;20.07;15.30;;;14.60;99.90;;;;;;5072519;28;20220;-59
2022/05/06 02:02:26;;;;;;;21.30;15.97;;;14.70;99.90;;;;;;5072687;28;20239;-59
2022/05/06 02:07:37;;;;;;;21.57;15.60;;;14.60;99.90;;;;;;5061449;28;20317;-59
2022/05/06 02:10:06;;;;;;;20.77;15.20;;;14.70;99.90;;;;;;5071929;28;20216;-59
2022/05/06 02:12:33;;;;;;;20.90;15.90;;;14.70;99.90;;;;;;5071980;28;20279;-59
2022/05/06 02:15:00;;;;;;;18.23;14.83;;;14.80;99.90;;;;;;5071569;28;20331;-59
2022/05/06 02:17:27;;;;;;;19.40;16.00;;;14.80;99.90;;;;;;5072488;28;20205;-60
2022/05/06 02:19:53;;;;;;;17.07;15.03;;;14.80;99.90;;;;;;5071723;28;20623;-60
2022/05/06 02:22:20;;;;;;;17.33;13.07;;;14.80;99.90;;;;;;5071665;28;20236;-60
2022/05/06 02:24:47;;;;;;;18.63;13.07;;;14.90;99.90;;;;;;5071718;28;20566;-59
2022/05/06 02:27:15;;;;;;;14.67;12.50;;;14.80;99.90;;;;;;5071478;28;20291;-59
2022/05/06 02:33:12;;;;;;;17.77;13.20;;;14.90;99.90;;;;;;5071611;28;20205;-59
2022/05/06 02:35:12;;;;;;;17.90;14.23;;;14.90;99.90;;;;;;5071483;28;20227;-59
2022/05/06 02:37:40;;;;;;;17.80;14.70;;;14.90;99.90;;;;;;5071691;28;20232;-59
2022/05/06 02:40:08;;;;;;;19.90;14.60;;;14.90;99.90;;;;;;5071639;28;20217;-59
2022/05/06 02:42:36;;;;;;;20.47;15.40;;;14.80;99.90;;;;;;5071401;28;20324;-59
2022/05/06 02:45:04;;;;;;;16.77;14.93;;;14.80;99.90;;;;;;5071765;28;20205;-59
2022/05/06 02:47:30;;;;;;;20.70;14.90;;;14.90;99.90;;;;;;5071706;28;20221;-59
2022/05/06 02:49:57;;;;;;;17.13;14.77;;;14.90;99.90;;;;;;5071521;28;20209;-59
2022/05/06 02:52:24;;;;;;;19.00;14.77;;;14.90;99.90;;;;;;5071391;28;20232;-60
2022/05/06 02:54:50;;;;;;;22.17;14.93;;;14.90;99.90;;;;;;5071202;28;20574;-59
2022/05/06 02:57:17;;;;;;;18.03;14.20;;;14.90;99.90;;;;;;5071594;28;20619;-59
2022/05/06 02:59:45;;;;;;;18.83;14.50;;;14.90;99.90;;;;;;5071637;28;20274;-59
2022/05/06 03:02:12;;;;;;;20.00;14.60;;;14.90;99.90;;;;;;5071475;28;20233;-59
2022/05/06 03:04:38;;;;;;;17.83;15.27;;;14.90;99.90;;;;;;5071276;28;20266;-59
2022/05/06 03:07:07;;;;;;;19.63;14.70;;;14.90;99.90;;;;;;5071398;28;20225;-59
2022/05/06 03:09:34;;;;;;;21.33;14.83;;;14.80;99.90;;;;;;5071533;28;20263;-59
2022/05/06 03:12:01;;;;;;;21.10;14.93;;;14.80;99.90;;;;;;5071390;28;20229;-59
2022/05/06 03:14:27;;;;;;;18.07;14.87;;;14.80;99.90;;;;;;5071024;28;20628;-59
2022/05/06 03:16:55;;;;;;;20.73;14.43;;;14.80;99.90;;;;;;5071186;28;20205;-59
2022/05/06 03:19:22;;;;;;;15.87;13.23;;;14.90;99.90;;;;;;5071743;28;20612;-59
2022/05/06 03:21:53;;;;;;;20.27;14.37;;;14.80;99.90;;;;;;5071465;28;20255;-59
2022/05/06 03:24:20;;;;;;;19.60;14.93;;;14.80;99.90;;;;;;5071106;28;20204;-59
2022/05/06 03:26:47;;;;;;;17.23;13.87;;;14.80;99.90;;;;;;5070978;28;20225;-59
2022/05/06 03:29:14;;;;;;;18.50;15.00;;;14.80;99.90;;;;;;5071279;28;20262;-59
2022/05/06 03:31:40;;;;;;;19.93;14.40;;;14.80;99.90;;;;;;5071233;28;20229;-59
2022/05/06 03:34:08;;;;;;;16.27;14.03;;;14.80;99.90;;;;;;5073073;28;20208;-59
2022/05/06 03:36:35;;;;;;;20.03;15.17;;;14.80;99.90;;;;;;5074851;28;20664;-59
2022/05/06 03:39:03;;;;;;;19.90;14.13;;;14.80;99.90;;;;;;5074755;28;20204;-59
2022/05/06 03:41:30;;;;;;;19.03;14.20;;;14.80;99.90;;;;;;5074660;28;20209;-59
2022/05/06 03:43:56;;;;;;;23.67;14.13;;;14.80;99.90;;;;;;5074512;28;20262;-59
2022/05/06 03:46:23;;;;;;;19.60;13.27;;;14.80;99.90;;;;;;5074117;28;20210;-59
2022/05/06 03:48:51;;;;;;;16.40;13.17;;;14.80;99.90;;;;;;5074709;28;20636;-59
2022/05/06 03:51:20;;;;;;;20.93;13.90;;;14.80;99.90;;;;;;5074548;28;20300;-59
2022/05/06 03:53:47;;;;;;;18.00;12.73;;;14.80;99.90;;;;;;5074748;28;20209;-59
2022/05/06 03:56:14;;;;;;;18.10;14.53;;;14.80;99.90;;;;;;5074130;28;20672;-59
2022/05/06 03:58:41;;;;;;;20.37;16.17;;;14.80;99.90;;;;;;5074376;28;20562;-59
2022/05/06 04:01:08;;;;;;;24.97;16.60;;;14.80;99.90;;;;;;5074393;28;20212;-60
2022/05/06 04:03:35;;;;;;;18.50;13.27;;;14.80;99.90;;;;;;5074758;28;20261;-60
2022/05/06 04:06:02;;;;;;;18.07;14.50;;;14.80;99.90;;;;;;5074539;28;20292;-59
2022/05/06 04:08:30;;;;;;;26.70;21.13;;;14.70;99.90;;;;;;5074362;28;20229;-59
2022/05/06 04:10:57;;;;;;;16.77;12.83;;;14.80;99.90;;;;;;5074483;28;20208;-59
2022/05/06 04:13:24;;;;;;;20.53;14.40;;;14.80;99.90;;;;;;5074063;28;20225;-59
2022/05/06 04:15:50;;;;;;;13.97;11.47;;;14.80;99.90;;;;;;5073709;28;20208;-59
2022/05/06 04:18:18;;;;;;;15.60;11.57;;;14.80;99.90;;;;;;5074055;28;20228;-59
2022/05/06 04:23:31;;;;;;;13.07;10.90;;;14.80;99.90;;;;;;5073856;28;20373;-59
2022/05/06 04:25:58;;;;;;;13.10;11.07;;;14.80;99.90;;;;;;5073171;28;20213;-59
2022/05/06 04:28:25;;;;;;;12.13;10.00;;;14.80;99.90;;;;;;5073538;28;20225;-59
2022/05/06 04:30:52;;;;;;;13.50;10.43;;;14.90;99.90;;;;;;5073933;28;20585;-59
2022/05/06 04:33:19;;;;;;;11.10;9.50;;;14.90;99.90;;;;;;5073635;28;20229;-59
2022/05/06 04:35:46;;;;;;;13.10;10.97;;;14.90;99.90;;;;;;5073425;28;20209;-59
2022/05/06 04:38:12;;;;;;;14.67;10.13;;;15.00;99.90;;;;;;5073498;28;20246;-59
2022/05/06 04:40:41;;;;;;;16.23;10.80;;;15.00;99.90;;;;;;5073301;28;20208;-60
2022/05/06 04:43:08;;;;;;;14.27;10.10;;;15.00;99.90;;;;;;5073436;28;20283;-59
2022/05/06 04:45:37;;;;;;;15.60;11.20;;;15.00;99.90;;;;;;5072000;28;20204;-59
2022/05/06 04:48:05;;;;;;;11.80;9.90;;;15.00;99.90;;;;;;5073291;28;20278;-59
2022/05/06 04:50:32;;;;;;;14.47;10.87;;;15.00;99.90;;;;;;5073126;28;20618;-59
2022/05/06 04:52:58;;;;;;;13.93;11.13;;;15.00;99.90;;;;;;5072980;28;20599;-59
2022/05/06 04:55:25;;;;;;;14.10;10.30;;;15.00;99.90;;;;;;5072776;28;20340;-59
2022/05/06 04:57:53;;;;;;;12.93;11.20;;;15.00;99.90;;;;;;5073114;28;20503;-59
2022/05/06 05:00:21;;;;;;;14.30;10.90;;;15.10;99.90;;;;;;5073069;28;20558;-59
2022/05/06 05:02:49;;;;;;;15.57;11.23;;;15.10;99.90;;;;;;5072799;28;20328;-59
2022/05/06 05:05:15;;;;;;;11.80;10.57;;;15.10;99.90;;;;;;5072463;28;20237;-59
2022/05/06 05:07:42;;;;;;;13.63;10.80;;;15.10;99.90;;;;;;5072803;28;20711;-59
2022/05/06 05:10:09;;;;;;;15.40;11.27;;;15.10;99.90;;;;;;5072712;28;20213;-60
2022/05/06 05:12:36;;;;;;;14.67;10.30;;;15.10;99.90;;;;;;5072630;28;20583;-59
2022/05/06 05:15:05;;;;;;;14.07;10.20;;;15.10;99.90;;;;;;5072554;28;20205;-59
2022/05/06 05:17:32;;;;;;;13.60;9.63;;;15.00;99.90;;;;;;5072999;28;20258;-59
2022/05/06 05:20:00;;;;;;;12.17;10.97;;;14.90;99.90;;;;;;5072892;28;20231;-59
2022/05/06 05:22:27;;;;;;;10.27;8.87;;;14.90;99.90;;;;;;5072446;28;20699;-59
2022/05/06 05:24:53;;;;;;;11.93;9.63;;;15.00;99.90;;;;;;5072697;28;20209;-59
2022/05/06 05:27:21;;;;;;;11.60;9.33;;;14.90;99.90;;;;;;5072635;28;20267;-59
2022/05/06 05:29:48;;;;;;;10.20;9.17;;;14.90;99.90;;;;;;5072174;28;20542;-59
2022/05/06 05:32:17;;;;;;;10.37;8.80;;;15.00;99.90;;;;;;5072519;28;20581;-59
2022/05/06 05:34:43;;;;;;;10.53;9.47;;;15.00;99.90;;;;;;5072348;28;20205;-59
2022/05/06 05:37:10;;;;;;;10.90;9.33;;;15.10;99.90;;;;;;5072864;28;20221;-59
2022/05/06 05:39:37;;;;;;;12.13;8.97;;;15.10;99.90;;;;;;5074754;28;20259;-59
2022/05/06 05:42:04;;;;;;;10.07;8.97;;;15.10;99.90;;;;;;5073474;28;20224;-59
2022/05/06 05:50:01;;;;;;;12.27;9.17;;;15.10;99.90;;;;;;5073039;28;20283;-59
2022/05/06 05:52:28;;;;;;;11.77;9.40;;;15.00;99.90;;;;;;5073591;28;20585;-59
2022/05/06 05:54:55;;;;;;;11.00;8.80;;;15.00;99.90;;;;;;5073632;28;20205;-59
2022/05/06 05:57:21;;;;;;;11.40;9.13;;;14.90;99.90;;;;;;5072381;28;20216;-59
2022/05/06 05:59:48;;;;;;;12.47;9.50;;;14.80;99.90;;;;;;5071944;28;20673;-59
2022/05/06 06:02:17;;;;;;;14.17;8.87;;;14.80;99.90;;;;;;5071675;28;20233;-59
2022/05/06 06:04:44;;;;;;;13.17;8.97;;;14.80;99.90;;;;;;5071734;28;20212;-59
2022/05/06 06:07:12;;;;;;;12.70;8.47;;;15.00;99.90;;;;;;5071652;28;20583;-59
2022/05/06 06:09:39;;;;;;;9.13;8.23;;;15.00;99.90;;;;;;5071853;28;20283;-59
2022/05/06 06:12:07;;;;;;;10.90;8.63;;;15.10;99.90;;;;;;5071627;28;20247;-59
2022/05/06 06:14:34;;;;;;;9.97;8.40;;;15.00;99.90;;;;;;5071545;28;20673;-59
2022/05/06 06:17:00;;;;;;;9.53;8.33;;;15.00;99.90;;;;;;5072026;28;20211;-59
2022/05/06 06:19:28;;;;;;;9.20;8.17;;;15.00;99.90;;;;;;5071786;28;20209;-59
2022/05/06 06:21:55;;;;;;;11.10;7.80;;;15.10;99.90;;;;;;5072092;28;20229;-59
2022/05/06 06:24:22;;;;;;;11.73;8.77;;;15.20;99.90;;;;;;5071480;28;20205;-59
2022/05/06 06:26:49;;;;;;;9.60;8.20;;;15.30;99.90;;;;;;5071380;28;20684;-59
2022/05/06 06:29:15;;;;;;;10.27;8.40;;;15.30;99.90;;;;;;5071894;28;20228;-60
2022/05/06 06:31:42;;;;;;;11.23;8.20;;;15.30;99.90;;;;;;5071830;28;20220;-59
2022/05/06 06:34:09;;;;;;;9.67;8.57;;;15.40;99.90;;;;;;5071553;28;20619;-59
2022/05/06 06:36:37;;;;;;;9.60;8.30;;;15.40;99.90;;;;;;5071501;28;20224;-59
2022/05/06 06:39:04;;;;;;;12.57;8.63;;;15.50;99.90;;;;;;5071515;28;20197;-60
2022/05/06 06:41:30;;;;;;;8.07;7.27;;;15.50;99.90;;;;;;5071582;28;20212;-60
2022/05/06 06:43:57;;;;;;;9.33;7.50;;;15.30;99.90;;;;;;5071649;28;20213;-60
2022/05/06 06:46:24;;;;;;;10.47;7.40;;;15.10;99.90;;;;;;5071355;28;20208;-59
2022/05/06 06:48:52;;;;;;;8.77;7.73;;;15.10;99.90;;;;;;5071546;28;20228;-59
2022/05/06 06:51:19;;;;;;;8.63;6.90;;;14.80;99.90;;;;;;5071446;28;20209;-59
2022/05/06 06:53:48;;;;;;;7.80;7.00;;;14.60;99.90;;;;;;5071414;28;20292;-60
2022/05/06 06:56:15;;;;;;;9.87;7.60;;;14.40;99.90;;;;;;5071037;28;20209;-59
2022/05/06 06:58:42;;;;;;;10.70;7.27;;;14.30;99.90;;;;;;5071625;28;20201;-59
2022/05/06 07:01:08;;;;;;;7.67;6.60;;;14.10;99.90;;;;;;5071854;28;20201;-60
2022/05/06 07:03:35;;;;;;;8.07;7.23;;;14.20;99.90;;;;;;5071668;28;20241;-60
2022/05/06 07:14:16;;;;;;;12.97;7.37;;;14.90;99.90;;;;;;5075242;28;20725;-59
2022/05/06 07:16:43;;;;;;;10.40;8.00;;;15.00;99.90;;;;;;5074784;28;20630;-59
2022/05/06 07:19:10;;;;;;;10.07;8.00;;;15.10;99.90;;;;;;5074896;28;20205;-59
2022/05/06 07:21:38;;;;;;;8.83;7.90;;;15.20;99.90;;;;;;5075156;28;20205;-59
2022/05/06 07:24:07;;;;;;;9.03;7.17;;;15.50;99.90;;;;;;5075317;28;20235;-60
2022/05/06 07:26:34;;;;;;;11.37;7.40;;;15.60;99.90;;;;;;5074612;28;20216;-59
2022/05/06 07:29:00;;;;;;;8.67;7.77;;;15.70;99.90;;;;;;5074909;28;20232;-59
2022/05/06 07:31:28;;;;;;;13.30;7.17;;;15.80;99.90;;;;;;5074656;28;20262;-59
2022/05/06 07:33:55;;;;;;;8.00;7.20;;;15.90;99.90;;;;;;5074967;28;20278;-59
2022/05/06 07:36:23;;;;;;;10.57;6.77;;;16.00;99.90;;;;;;5074542;28;20207;-59
2022/05/06 07:38:50;;;;;;;8.40;6.53;;;16.10;99.90;;;;;;5074833;28;20225;-59
2022/05/06 07:41:18;;;;;;;9.40;7.43;;;16.30;99.90;;;;;;5074575;28;20209;-59
2022/05/06 07:43:44;;;;;;;9.70;7.47;;;16.40;99.90;;;;;;5074764;28;20204;-59
2022/05/06 07:46:11;;;;;;;11.13;7.40;;;16.40;99.90;;;;;;5074200;28;20205;-60
2022/05/06 07:48:38;;;;;;;9.47;7.13;;;16.30;99.90;;;;;;5074522;28;20225;-59
2022/05/06 07:51:05;;;;;;;11.90;7.70;;;16.30;99.90;;;;;;5074773;28;20209;-59
2022/05/06 07:53:32;;;;;;;7.30;6.60;;;16.30;99.90;;;;;;5074348;28;20225;-58
2022/05/06 07:56:00;;;;;;;12.13;6.70;;;16.50;99.90;;;;;;5073982;28;20205;-58
2022/05/06 07:58:28;;;;;;;12.10;7.13;;;16.40;99.90;;;;;;5074220;28;20205;-58
2022/05/06 08:00:54;;;;;;;9.20;6.93;;;16.30;99.90;;;;;;5074172;28;20209;-58
2022/05/06 08:06:05;;;;;;;7.73;6.60;;;16.10;99.90;;;;;;5073913;28;20278;-59
2022/05/06 08:08:32;;;;;;;8.10;6.70;;;16.30;99.90;;;;;;5074099;28;20225;-60
2022/05/06 08:10:59;;;;;;;9.20;7.07;;;16.50;99.90;;;;;;5073977;28;20201;-60
2022/05/06 08:13:26;;;;;;;6.97;6.23;;;16.80;99.90;;;;;;5074251;28;20260;-60
2022/05/06 08:15:55;;;;;;;8.03;6.07;;;17.00;99.90;;;;;;5073722;28;20668;-61
2022/05/06 08:18:22;;;;;;;8.93;6.33;;;17.20;99.90;;;;;;5074400;28;20201;-59
2022/05/06 08:20:48;;;;;;;8.37;5.67;;;17.20;99.90;;;;;;5073794;28;20715;-61
2022/05/06 08:23:15;;;;;;;9.27;5.78;;;17.00;99.90;;;;;;5073833;28;20240;-62
2022/05/06 08:25:42;;;;;;;7.57;5.60;;;16.70;99.90;;;;;;5073584;28;20730;-61
2022/05/06 08:28:09;;;;;;;8.23;5.37;;;16.30;99.90;;;;;;5074028;28;20271;-60
2022/05/06 08:30:37;;;;;;;9.27;5.80;;;16.20;99.90;;;;;;5073836;28;20254;-62
2022/05/06 08:33:06;;;;;;;8.45;5.45;;;16.30;99.90;;;;;;5073644;28;20229;-61
2022/05/06 08:35:34;;;;;;;7.93;5.57;;;16.40;99.90;;;;;;5073517;28;20211;-61
2022/05/06 08:38:01;;;;;;;8.02;5.15;;;16.40;99.90;;;;;;5073582;28;20219;-60
2022/05/06 08:40:30;;;;;;;8.07;5.23;;;16.50;99.90;;;;;;5073684;28;20254;-61
2022/05/06 08:42:57;;;;;;;9.87;5.20;;;16.60;99.90;;;;;;5073419;28;20574;-62
2022/05/06 08:50:57;;;;;;;7.30;5.10;;;16.80;99.90;;;;;;5073156;28;20659;-62
2022/05/06 08:53:26;;;;;;;9.57;5.10;;;16.70;99.90;;;;;;5073168;28;20259;-61
2022/05/06 08:55:55;;;;;;;8.68;6.10;;;16.60;99.90;;;;;;5072796;28;20665;-61
2022/05/06 08:58:22;;;;;;;10.05;6.05;;;16.80;99.90;;;;;;5073288;28;20201;-61
2022/05/06 09:00:49;;;;;;;7.70;5.72;;;17.00;99.90;;;;;;5073192;28;20236;-62
2022/05/06 09:03:18;;;;;;;6.25;5.15;;;17.00;99.90;;;;;;5072548;28;20232;-61
2022/05/06 09:05:52;;;;;;;9.13;5.38;;;17.00;99.90;;;;;;5073007;28;20209;-61
2022/05/06 09:08:19;;;;;;;5.80;4.95;;;17.10;99.90;;;;;;5072824;28;20222;-61
2022/05/06 09:10:59;;;;;;;8.82;5.28;;;17.40;99.90;;;;;;5073022;28;20212;-61
2022/05/06 09:13:26;;;;;;;7.65;4.60;;;17.70;99.90;;;;;;5072873;28;20315;-61
2022/05/06 09:19:12;;;;;;;6.88;5.47;;;18.50;99.90;;;;;;5072878;28;20204;-61
2022/05/06 09:21:39;;;;;;;6.32;4.90;;;18.60;99.90;;;;;;5072619;28;20205;-61
2022/05/06 09:24:19;;;;;;;6.50;4.47;;;18.40;99.90;;;;;;5072450;28;20205;-61
2022/05/06 09:26:59;;;;;;;10.02;5.15;;;18.60;99.90;;;;;;5072873;28;20208;-61
2022/05/06 09:29:30;;;;;;;7.90;4.72;;;18.90;99.90;;;;;;5072618;28;20228;-62
2022/05/06 09:32:12;;;;;;;6.40;4.55;;;19.00;99.90;;;;;;5071821;28;20215;-60
2022/05/06 09:34:40;;;;;;;8.48;4.43;;;19.10;99.90;;;;;;5072062;28;20209;-61
2022/05/06 09:37:07;;;;;;;6.47;4.63;;;19.30;99.90;;;;;;5072474;28;20205;-61
2022/05/06 09:39:36;;;;;;;7.72;4.53;;;19.70;99.90;;;;;;5072583;28;20197;-60
2022/05/06 09:42:04;;;;;;;7.60;4.03;;;20.00;99.90;;;;;;5072217;28;20221;-61
2022/05/06 09:44:33;;;;;;;7.30;4.15;;;20.40;99.90;;;;;;5072188;28;20201;-61
2022/05/06 09:47:09;;;;;;;6.00;4.28;;;20.60;99.90;;;;;;5071766;28;20209;-61
2022/05/06 09:49:41;;;;;;;8.45;4.60;;;20.70;99.90;;;;;;5072002;28;20285;-61
2022/05/06 09:52:15;;;;;;;7.53;4.20;;;20.90;99.90;;;;;;5072062;28;20274;-60
2022/05/06 09:54:43;;;;;;;7.03;4.05;;;20.90;99.90;;;;;;5071889;28;20296;-60
2022/05/06 09:57:11;;;;;;;4.60;3.78;;;21.20;99.90;;;;;;5072178;28;20213;-60
2022/05/06 09:59:38;;;;;;;4.35;3.78;;;21.20;99.90;;;;;;5071928;28;20292;-61
2022/05/06 10:02:06;;;;;;;10.57;4.20;;;21.70;99.90;;;;;;5072140;28;20240;-60
2022/05/06 10:04:34;;;;;;;7.55;4.13;;;22.00;99.90;;;;;;5072196;28;20216;-61
2022/05/06 10:07:05;;;;;;;7.13;3.80;;;22.00;99.90;;;;;;5071491;28;20567;-61
2022/05/06 10:09:38;;;;;;;5.45;3.90;;;22.20;99.90;;;;;;5072059;28;20225;-60
2022/05/06 10:12:07;;;;;;;8.45;4.40;;;22.50;99.90;;;;;;5071825;28;20233;-59
2022/05/06 10:14:36;;;;;;;7.45;4.40;;;22.70;99.90;;;;;;5071901;28;20692;-59
2022/05/06 10:17:03;;;;;;;7.30;3.53;;;23.00;99.90;;;;;;5071986;28;20208;-59
2022/05/06 10:19:46;;;;;;;5.25;3.63;;;22.80;99.70;;;;;;5071966;28;20201;-59
2022/05/06 10:22:14;;;;;;;4.90;3.90;;;22.30;99.90;;;;;;5071722;28;20235;-59
2022/05/06 10:24:43;;;;;;;6.20;3.72;;;22.20;99.90;;;;;;5071496;28;20288;-61
2022/05/06 10:32:25;;;;;;;4.60;3.60;;;22.20;99.90;;;;;;5071782;28;20232;-60
2022/05/06 10:33:16;;;;;;;5.70;3.60;;;22.80;98.90;;;;;;5071562;28;20224;-60
2022/05/06 10:35:44;;;;;;;3.90;3.28;;;23.00;98.10;;;;;;5071387;28;20209;-61
2022/05/06 10:38:23;;;;;;;5.35;3.50;;;23.30;97.30;;;;;;5071614;28;20901;-60
2022/05/06 10:40:54;;;;;;;4.03;3.10;;;23.40;96.40;;;;;;5071747;28;20232;-60
2022/05/06 10:43:54;;;;;;;5.38;3.42;;;23.40;95.70;;;;;;5074214;28;20232;-61
2022/05/06 10:46:38;;;;;;;8.15;3.50;;;23.30;95.20;;;;;;5072011;28;20236;-61
2022/05/06 10:49:52;;;;;;;5.90;3.25;;;23.10;92.80;;;;;;5075256;28;20228;-61
2022/05/06 10:52:42;;;;;;;5.38;2.85;;;22.90;92.00;;;;;;4993563;28;20227;-62
2022/05/06 10:55:13;;;;;;;3.75;2.90;;;22.90;92.00;;;;;;4993622;28;20629;-60
2022/05/06 10:57:50;;;;;;;4.10;2.80;;;22.90;92.60;;;;;;5052441;28;20209;-62
2022/05/06 11:00:18;;;;;;;7.03;3.30;;;22.80;92.60;;;;;;5075359;28;20200;-61
2022/05/06 11:02:45;;;;;;;4.85;3.33;;;22.80;91.70;;;;;;5074963;28;20233;-61
2022/05/06 11:05:14;;;;;;;6.50;2.92;;;22.70;91.80;;;;;;5074883;28;20266;-61
2022/05/06 11:07:43;;;;;;;6.25;3.15;;;22.70;91.70;;;;;;5074984;28;20231;-61
2022/05/06 11:10:12;;;;;;;4.45;3.03;;;22.70;91.30;;;;;;5074676;28;20708;-60
2022/05/06 11:12:41;;;;;;;5.75;3.60;;;22.70;91.00;;;;;;5074725;28;20225;-61
2022/05/06 11:15:09;;;;;;;4.85;2.95;;;22.60;91.10;;;;;;5074443;28;20546;-62
2022/05/06 11:17:36;;;;;;;8.52;3.40;;;22.30;91.10;;;;;;5074946;28;20212;-60
2022/05/06 11:20:05;;;;;;;6.70;3.58;;;22.10;91.80;;;;;;5074778;28;20201;-62
2022/05/06 11:22:33;;;;;;;4.93;3.05;;;22.10;91.60;;;;;;5074601;28;20221;-62
2022/05/06 11:25:01;;;;;;;7.53;3.60;;;22.00;92.00;;;;;;5074338;28;20315;-62
2022/05/06 11:27:29;;;;;;;5.72;3.67;;;22.10;91.70;;;;;;5075061;28;20236;-61
2022/05/06 11:29:57;;;;;;;9.55;6.75;;;22.50;91.90;;;;;;5074400;28;20316;-61
2022/05/06 11:32:25;;;;;;;5.55;3.53;;;22.70;91.20;;;;;;5074675;28;20263;-63
2022/05/06 11:34:56;;;;;;;8.52;3.92;;;22.90;90.70;;;;;;5074699;28;20593;-62
2022/05/06 11:37:24;;;;;;;7.10;3.50;;;23.00;90.50;;;;;;5074539;28;20608;-61
2022/05/06 11:39:51;;;;;;;5.30;3.33;;;23.20;89.70;;;;;;5074688;28;20584;-61
2022/05/06 11:42:22;;;;;;;6.00;3.60;;;23.00;90.10;;;;;;5074809;28;20221;-61
2022/05/06 11:47:44;;;;;;;7.63;3.65;;;23.00;90.50;;;;;;5074534;28;20262;-60
2022/05/06 11:50:11;;;;;;;7.50;3.72;;;22.80;89.80;;;;;;5074748;28;20229;-61
2022/05/06 11:52:39;;;;;;;6.00;3.90;;;22.80;90.20;;;;;;5074523;28;20251;-59
2022/05/06 11:55:07;;;;;;;5.25;3.30;;;22.90;90.10;;;;;;5073411;28;20239;-60
2022/05/06 11:57:36;;;;;;;6.28;4.13;;;23.00;89.50;;;;;;5074168;28;20258;-60
2022/05/06 12:00:04;;;;;;;4.38;3.42;;;22.80;89.40;;;;;;5074398;28;20201;-60
2022/05/06 12:02:31;;;;;;;5.18;3.38;;;22.80;89.30;;;;;;5073870;28;20237;-60
2022/05/06 12:04:58;;;;;;;5.57;4.30;;;22.80;88.70;;;;;;5074054;28;20208;-59
2022/05/06 12:07:43;;;;;;;5.03;3.80;;;22.80;88.20;;;;;;5074187;28;20209;-61
2022/05/06 12:10:10;;;;;;;6.68;3.67;;;22.80;88.40;;;;;;5074619;28;20225;-59
2022/05/06 12:12:52;;;;;;;7.60;3.63;;;23.10;88.10;;;;;;5073920;28;20707;-60
2022/05/06 12:15:21;;;;;;;5.22;3.60;;;23.30;87.10;;;;;;5074045;28;20254;-60
2022/05/06 12:17:47;;;;;;;5.07;3.58;;;23.30;85.20;;;;;;5073787;28;20611;-61
2022/05/06 12:20:37;;;;;;;7.22;3.42;;;23.20;86.50;;;;;;5073771;28;20661;-60
2022/05/06 12:23:05;;;;;;;5.93;3.58;;;23.40;85.60;;;;;;5073422;28;20716;-60
2022/05/06 12:25:35;;;;;;;5.50;3.55;;;23.40;84.90;;;;;;5073924;28;20204;-60
2022/05/06 12:28:07;;;;;;;5.68;3.55;;;23.50;84.40;;;;;;5074016;28;20205;-62
2022/05/06 12:30:36;;;;;;;7.22;3.47;;;23.50;84.00;;;;;;5073638;28;20228;-61
2022/05/06 12:33:07;;;;;;;5.13;3.55;;;23.50;84.10;;;;;;5073424;28;20229;-61
2022/05/06 12:35:55;;;;;;;5.40;3.88;;;23.50;83.30;;;;;;5073232;28;20201;-61
2022/05/06 12:38:22;;;;;;;4.18;3.30;;;23.60;82.70;;;;;;5073413;28;20296;-60
2022/05/06 12:40:50;;;;;;;4.40;3.22;;;23.80;82.50;;;;;;5073453;28;20233;-61
2022/05/06 12:43:17;;;;;;;8.00;3.75;;;24.00;83.10;;;;;;5073220;28;20307;-61
2022/05/06 12:45:54;;;;;;;4.15;3.72;;;24.10;82.40;;;;;;5073074;28;20209;-61
2022/05/06 12:51:06;;;;;;;5.72;3.30;;;24.30;80.60;;;;;;5073100;28;20230;-60
2022/05/06 12:53:34;;;;;;;4.97;2.88;;;24.10;81.10;;;;;;5073252;28;20329;-61
2022/05/06 12:56:01;;;;;;;5.35;3.30;;;23.90;81.30;;;;;;5072909;28;20296;-61
2022/05/06 12:58:28;;;;;;;4.78;3.55;;;23.80;80.50;;;;;;5072994;28;20209;-60
2022/05/06 13:00:57;;;;;;;6.03;3.50;;;23.90;81.40;;;;;;5072600;28;20734;-61
2022/05/06 13:03:23;;;;;;;7.30;3.95;;;23.90;80.60;;;;;;5072361;28;20233;-61
2022/05/06 13:05:50;;;;;;;5.50;4.00;;;23.80;81.70;;;;;;5071400;28;20212;-61
2022/05/06 13:08:17;;;;;;;6.43;3.60;;;23.80;81.30;;;;;;5072514;28;20585;-60
2022/05/06 13:10:44;;;;;;;6.35;3.70;;;23.70;80.90;;;;;;5072480;28;20225;-59
2022/05/06 13:13:10;;;;;;;5.88;3.70;;;23.60;80.80;;;;;;5072322;28;20636;-60
2022/05/06 13:15:37;;;;;;;6.10;3.35;;;23.60;81.20;;;;;;5072664;28;20282;-60
2022/05/06 13:18:06;;;;;;;7.00;3.08;;;23.60;81.90;;;;;;5072626;28;20201;-59
2022/05/06 13:20:33;;;;;;;6.10;3.25;;;23.60;82.40;;;;;;5072466;28;20201;-60
2022/05/06 13:22:59;;;;;;;6.03;3.50;;;23.60;81.20;;;;;;5072484;28;20228;-59
2022/05/06 13:25:26;;;;;;;5.00;3.30;;;23.50;81.10;;;;;;5072258;28;20200;-59
2022/05/06 13:28:25;;;;;;;6.57;3.08;;;23.50;81.60;;;;;;5204717;27;20518;-60